sensor_id;sensor_type;location;lat;lon;timestamp;P1;durP1;ratioP1;P2;durP2;ratioP2
23670;SDS011;12012;51.998;7.614;2024-01-27T00:01:35;35.20;;;4.80;;
23670;SDS011;12012;51.998;7.614;2024-01-27T00:04:00;26.42;;;4.68;;
23670;SDS011;12012;51.998;7.614;2024-01-27T00:06:27;27.17;;;4.65;;
23670;SDS011;12012;51.998;7.614;2024-01-27T00:08:52;25.83;;;4.88;;
23670;SDS011;12012;51.998;7.614;2024-01-27T00:11:18;32.58;;;5.55;;
23670;SDS011;12012;51.998;7.614;2024-01-27T00:13:44;32.55;;;4.75;;
23670;SDS011;12012;51.998;7.614;2024-01-27T00:16:10;31.50;;;4.82;;
23670;SDS011;12012;51.998;7.614;2024-01-27T00:18:36;34.60;;;5.55;;
23670;SDS011;12012;51.998;7.614;2024-01-27T00:21:03;22.05;;;4.05;;
23670;SDS011;12012;51.998;7.614;2024-01-27T00:23:31;21.50;;;4.85;;
23670;SDS011;12012;51.998;7.614;2024-01-27T00:25:57;28.55;;;4.40;;
23670;SDS011;12012;51.998;7.614;2024-01-27T00:28:23;22.98;;;4.53;;
23670;SDS011;12012;51.998;7.614;2024-01-27T00:30:49;28.35;;;5.10;;
23670;SDS011;12012;51.998;7.614;2024-01-27T00:33:14;27.50;;;4.57;;
23670;SDS011;12012;51.998;7.614;2024-01-27T00:35:40;27.88;;;4.78;;
23670;SDS011;12012;51.998;7.614;2024-01-27T00:38:05;20.27;;;4.10;;
23670;SDS011;12012;51.998;7.614;2024-01-27T00:40:31;23.75;;;5.53;;
23670;SDS011;12012;51.998;7.614;2024-01-27T00:42:56;29.73;;;5.10;;
23670;SDS011;12012;51.998;7.614;2024-01-27T00:45:22;28.40;;;4.60;;
23670;SDS011;12012;51.998;7.614;2024-01-27T00:47:49;25.42;;;4.30;;
23670;SDS011;12012;51.998;7.614;2024-01-27T00:50:15;21.90;;;3.80;;
23670;SDS011;12012;51.998;7.614;2024-01-27T00:52:41;26.70;;;5.63;;
23670;SDS011;12012;51.998;7.614;2024-01-27T00:55:07;21.50;;;4.45;;
23670;SDS011;12012;51.998;7.614;2024-01-27T00:57:32;20.13;;;4.45;;
23670;SDS011;12012;51.998;7.614;2024-01-27T00:59:58;25.63;;;5.20;;
23670;SDS011;12012;51.998;7.614;2024-01-27T01:02:24;25.58;;;4.70;;
23670;SDS011;12012;51.998;7.614;2024-01-27T01:04:49;23.17;;;5.00;;
23670;SDS011;12012;51.998;7.614;2024-01-27T01:07:15;26.20;;;5.18;;
23670;SDS011;12012;51.998;7.614;2024-01-27T01:09:40;21.33;;;5.18;;
23670;SDS011;12012;51.998;7.614;2024-01-27T01:12:06;22.55;;;4.85;;
23670;SDS011;12012;51.998;7.614;2024-01-27T01:14:31;32.60;;;5.82;;
23670;SDS011;12012;51.998;7.614;2024-01-27T01:16:57;27.30;;;5.05;;
23670;SDS011;12012;51.998;7.614;2024-01-27T01:19:23;32.00;;;5.47;;
23670;SDS011;12012;51.998;7.614;2024-01-27T01:21:48;29.77;;;5.72;;
23670;SDS011;12012;51.998;7.614;2024-01-27T01:24:14;31.83;;;5.60;;
23670;SDS011;12012;51.998;7.614;2024-01-27T01:26:40;35.92;;;5.40;;
23670;SDS011;12012;51.998;7.614;2024-01-27T01:29:05;22.90;;;5.43;;
23670;SDS011;12012;51.998;7.614;2024-01-27T01:31:31;24.75;;;5.63;;
23670;SDS011;12012;51.998;7.614;2024-01-27T01:33:56;24.58;;;5.53;;
23670;SDS011;12012;51.998;7.614;2024-01-27T01:36:22;27.27;;;5.15;;
23670;SDS011;12012;51.998;7.614;2024-01-27T01:38:47;25.50;;;5.82;;
23670;SDS011;12012;51.998;7.614;2024-01-27T01:41:13;24.20;;;5.38;;
23670;SDS011;12012;51.998;7.614;2024-01-27T01:43:39;27.50;;;6.07;;
23670;SDS011;12012;51.998;7.614;2024-01-27T01:46:04;23.45;;;5.53;;
23670;SDS011;12012;51.998;7.614;2024-01-27T01:48:30;31.10;;;6.32;;
23670;SDS011;12012;51.998;7.614;2024-01-27T01:50:56;29.42;;;5.70;;
23670;SDS011;12012;51.998;7.614;2024-01-27T01:53:26;30.48;;;7.07;;
23670;SDS011;12012;51.998;7.614;2024-01-27T01:55:52;26.77;;;5.85;;
23670;SDS011;12012;51.998;7.614;2024-01-27T01:58:18;22.92;;;5.07;;
23670;SDS011;12012;51.998;7.614;2024-01-27T02:00:43;22.67;;;5.72;;
23670;SDS011;12012;51.998;7.614;2024-01-27T02:03:10;23.20;;;5.25;;
23670;SDS011;12012;51.998;7.614;2024-01-27T02:05:38;25.60;;;5.95;;
23670;SDS011;12012;51.998;7.614;2024-01-27T02:08:04;23.42;;;5.95;;
23670;SDS011;12012;51.998;7.614;2024-01-27T02:10:30;30.92;;;5.45;;
23670;SDS011;12012;51.998;7.614;2024-01-27T02:13:15;29.13;;;6.45;;
23670;SDS011;12012;51.998;7.614;2024-01-27T02:15:45;26.45;;;6.18;;
23670;SDS011;12012;51.998;7.614;2024-01-27T02:18:11;22.33;;;5.63;;
23670;SDS011;12012;51.998;7.614;2024-01-27T02:20:37;34.38;;;6.40;;
23670;SDS011;12012;51.998;7.614;2024-01-27T02:23:03;24.88;;;7.10;;
23670;SDS011;12012;51.998;7.614;2024-01-27T02:25:30;26.98;;;6.25;;
23670;SDS011;12012;51.998;7.614;2024-01-27T02:27:58;17.35;;;6.10;;
23670;SDS011;12012;51.998;7.614;2024-01-27T02:30:24;25.17;;;6.07;;
23670;SDS011;12012;51.998;7.614;2024-01-27T02:32:50;28.95;;;6.20;;
23670;SDS011;12012;51.998;7.614;2024-01-27T02:35:16;25.40;;;5.90;;
23670;SDS011;12012;51.998;7.614;2024-01-27T02:37:42;22.55;;;5.78;;
23670;SDS011;12012;51.998;7.614;2024-01-27T02:40:08;30.67;;;7.85;;
23670;SDS011;12012;51.998;7.614;2024-01-27T02:42:37;24.48;;;6.78;;
23670;SDS011;12012;51.998;7.614;2024-01-27T02:45:03;31.88;;;6.43;;
23670;SDS011;12012;51.998;7.614;2024-01-27T02:47:29;16.95;;;6.05;;
23670;SDS011;12012;51.998;7.614;2024-01-27T02:49:55;22.52;;;6.22;;
23670;SDS011;12012;51.998;7.614;2024-01-27T02:52:20;23.88;;;7.13;;
23670;SDS011;12012;51.998;7.614;2024-01-27T02:54:46;24.05;;;5.63;;
23670;SDS011;12012;51.998;7.614;2024-01-27T02:57:13;18.75;;;5.30;;
23670;SDS011;12012;51.998;7.614;2024-01-27T02:59:40;24.63;;;6.22;;
23670;SDS011;12012;51.998;7.614;2024-01-27T03:02:06;30.95;;;6.00;;
23670;SDS011;12012;51.998;7.614;2024-01-27T03:04:31;32.67;;;6.50;;
23670;SDS011;12012;51.998;7.614;2024-01-27T03:06:57;28.58;;;6.95;;
23670;SDS011;12012;51.998;7.614;2024-01-27T03:09:22;24.25;;;8.25;;
23670;SDS011;12012;51.998;7.614;2024-01-27T03:11:48;27.20;;;7.05;;
23670;SDS011;12012;51.998;7.614;2024-01-27T03:14:14;33.00;;;7.10;;
23670;SDS011;12012;51.998;7.614;2024-01-27T03:16:39;17.80;;;6.35;;
23670;SDS011;12012;51.998;7.614;2024-01-27T03:19:05;29.10;;;7.40;;
23670;SDS011;12012;51.998;7.614;2024-01-27T03:21:31;26.35;;;6.75;;
23670;SDS011;12012;51.998;7.614;2024-01-27T03:23:57;25.85;;;7.00;;
23670;SDS011;12012;51.998;7.614;2024-01-27T03:26:23;28.92;;;7.65;;
23670;SDS011;12012;51.998;7.614;2024-01-27T03:28:48;24.73;;;6.90;;
23670;SDS011;12012;51.998;7.614;2024-01-27T03:31:14;32.28;;;7.63;;
23670;SDS011;12012;51.998;7.614;2024-01-27T03:33:39;27.55;;;7.70;;
23670;SDS011;12012;51.998;7.614;2024-01-27T03:36:12;33.75;;;7.65;;
23670;SDS011;12012;51.998;7.614;2024-01-27T03:38:38;27.70;;;8.32;;
23670;SDS011;12012;51.998;7.614;2024-01-27T03:41:06;29.20;;;7.65;;
23670;SDS011;12012;51.998;7.614;2024-01-27T03:43:35;29.35;;;7.15;;
23670;SDS011;12012;51.998;7.614;2024-01-27T03:46:01;30.40;;;7.85;;
23670;SDS011;12012;51.998;7.614;2024-01-27T03:48:28;33.55;;;8.48;;
23670;SDS011;12012;51.998;7.614;2024-01-27T03:50:53;26.45;;;7.40;;
23670;SDS011;12012;51.998;7.614;2024-01-27T03:53:19;37.25;;;9.10;;
23670;SDS011;12012;51.998;7.614;2024-01-27T03:55:44;30.25;;;7.35;;
23670;SDS011;12012;51.998;7.614;2024-01-27T03:58:10;27.75;;;9.20;;
23670;SDS011;12012;51.998;7.614;2024-01-27T04:00:35;33.38;;;8.05;;
23670;SDS011;12012;51.998;7.614;2024-01-27T04:03:01;23.00;;;7.53;;
23670;SDS011;12012;51.998;7.614;2024-01-27T04:05:31;31.58;;;8.93;;
23670;SDS011;12012;51.998;7.614;2024-01-27T04:07:56;25.13;;;8.45;;
23670;SDS011;12012;51.998;7.614;2024-01-27T04:10:22;32.97;;;8.55;;
23670;SDS011;12012;51.998;7.614;2024-01-27T04:12:48;24.02;;;8.43;;
23670;SDS011;12012;51.998;7.614;2024-01-27T04:15:14;26.17;;;8.75;;
23670;SDS011;12012;51.998;7.614;2024-01-27T04:17:40;32.05;;;8.93;;
23670;SDS011;12012;51.998;7.614;2024-01-27T04:20:06;27.67;;;8.57;;
23670;SDS011;12012;51.998;7.614;2024-01-27T04:22:33;35.58;;;9.20;;
23670;SDS011;12012;51.998;7.614;2024-01-27T04:24:59;23.23;;;7.93;;
23670;SDS011;12012;51.998;7.614;2024-01-27T04:27:28;30.00;;;8.60;;
23670;SDS011;12012;51.998;7.614;2024-01-27T04:29:53;22.58;;;8.65;;
23670;SDS011;12012;51.998;7.614;2024-01-27T04:32:19;27.33;;;9.13;;
23670;SDS011;12012;51.998;7.614;2024-01-27T04:34:46;33.78;;;8.93;;
23670;SDS011;12012;51.998;7.614;2024-01-27T04:37:12;37.00;;;9.70;;
23670;SDS011;12012;51.998;7.614;2024-01-27T04:39:37;27.85;;;9.23;;
23670;SDS011;12012;51.998;7.614;2024-01-27T04:42:03;25.40;;;8.15;;
23670;SDS011;12012;51.998;7.614;2024-01-27T04:44:31;29.75;;;9.85;;
23670;SDS011;12012;51.998;7.614;2024-01-27T04:46:57;31.33;;;9.57;;
23670;SDS011;12012;51.998;7.614;2024-01-27T04:49:22;24.77;;;7.20;;
23670;SDS011;12012;51.998;7.614;2024-01-27T04:51:48;22.95;;;7.13;;
23670;SDS011;12012;51.998;7.614;2024-01-27T04:54:13;17.40;;;8.05;;
23670;SDS011;12012;51.998;7.614;2024-01-27T04:56:39;22.15;;;7.70;;
23670;SDS011;12012;51.998;7.614;2024-01-27T04:59:05;20.33;;;7.35;;
23670;SDS011;12012;51.998;7.614;2024-01-27T05:01:31;25.98;;;8.43;;
23670;SDS011;12012;51.998;7.614;2024-01-27T05:03:57;23.30;;;8.20;;
23670;SDS011;12012;51.998;7.614;2024-01-27T05:06:22;22.42;;;9.05;;
23670;SDS011;12012;51.998;7.614;2024-01-27T05:08:48;26.98;;;10.35;;
23670;SDS011;12012;51.998;7.614;2024-01-27T05:11:15;24.08;;;8.10;;
23670;SDS011;12012;51.998;7.614;2024-01-27T05:13:42;24.65;;;8.68;;
23670;SDS011;12012;51.998;7.614;2024-01-27T05:16:08;32.38;;;10.88;;
23670;SDS011;12012;51.998;7.614;2024-01-27T05:18:34;35.10;;;11.40;;
23670;SDS011;12012;51.998;7.614;2024-01-27T05:20:59;30.65;;;9.77;;
23670;SDS011;12012;51.998;7.614;2024-01-27T05:23:25;36.33;;;10.50;;
23670;SDS011;12012;51.998;7.614;2024-01-27T05:25:52;34.78;;;10.70;;
23670;SDS011;12012;51.998;7.614;2024-01-27T05:28:17;37.35;;;10.88;;
23670;SDS011;12012;51.998;7.614;2024-01-27T05:30:43;40.50;;;11.40;;
23670;SDS011;12012;51.998;7.614;2024-01-27T05:33:08;33.42;;;11.43;;
23670;SDS011;12012;51.998;7.614;2024-01-27T05:35:34;30.95;;;11.73;;
23670;SDS011;12012;51.998;7.614;2024-01-27T05:37:59;29.38;;;12.52;;
23670;SDS011;12012;51.998;7.614;2024-01-27T05:40:25;38.97;;;14.02;;
23670;SDS011;12012;51.998;7.614;2024-01-27T05:42:50;33.45;;;12.60;;
23670;SDS011;12012;51.998;7.614;2024-01-27T05:45:16;30.38;;;12.18;;
23670;SDS011;12012;51.998;7.614;2024-01-27T05:47:42;30.50;;;13.65;;
23670;SDS011;12012;51.998;7.614;2024-01-27T05:50:08;33.80;;;12.45;;
23670;SDS011;12012;51.998;7.614;2024-01-27T05:52:34;31.00;;;13.25;;
23670;SDS011;12012;51.998;7.614;2024-01-27T05:55:00;33.60;;;14.18;;
23670;SDS011;12012;51.998;7.614;2024-01-27T05:57:27;37.47;;;13.75;;
23670;SDS011;12012;51.998;7.614;2024-01-27T05:59:52;33.65;;;13.65;;
23670;SDS011;12012;51.998;7.614;2024-01-27T06:02:19;42.47;;;15.15;;
23670;SDS011;12012;51.998;7.614;2024-01-27T06:04:44;37.25;;;15.75;;
23670;SDS011;12012;51.998;7.614;2024-01-27T06:07:10;33.80;;;14.85;;
23670;SDS011;12012;51.998;7.614;2024-01-27T06:09:39;35.83;;;15.05;;
23670;SDS011;12012;51.998;7.614;2024-01-27T06:12:05;35.03;;;15.05;;
23670;SDS011;12012;51.998;7.614;2024-01-27T06:14:31;29.33;;;14.10;;
23670;SDS011;12012;51.998;7.614;2024-01-27T06:16:56;36.58;;;15.48;;
23670;SDS011;12012;51.998;7.614;2024-01-27T06:19:22;39.88;;;15.07;;
23670;SDS011;12012;51.998;7.614;2024-01-27T06:21:47;33.47;;;16.23;;
23670;SDS011;12012;51.998;7.614;2024-01-27T06:24:13;38.05;;;15.23;;
23670;SDS011;12012;51.998;7.614;2024-01-27T06:26:38;39.80;;;14.75;;
23670;SDS011;12012;51.998;7.614;2024-01-27T06:29:04;33.92;;;14.50;;
23670;SDS011;12012;51.998;7.614;2024-01-27T06:31:29;34.08;;;15.10;;
23670;SDS011;12012;51.998;7.614;2024-01-27T06:33:55;36.15;;;15.98;;
23670;SDS011;12012;51.998;7.614;2024-01-27T06:36:20;32.92;;;15.40;;
23670;SDS011;12012;51.998;7.614;2024-01-27T06:38:49;35.55;;;17.00;;
23670;SDS011;12012;51.998;7.614;2024-01-27T06:41:15;34.78;;;16.27;;
23670;SDS011;12012;51.998;7.614;2024-01-27T06:43:41;44.22;;;17.52;;
23670;SDS011;12012;51.998;7.614;2024-01-27T06:46:07;42.45;;;15.95;;
23670;SDS011;12012;51.998;7.614;2024-01-27T06:48:32;32.78;;;16.70;;
23670;SDS011;12012;51.998;7.614;2024-01-27T06:50:58;39.55;;;16.60;;
23670;SDS011;12012;51.998;7.614;2024-01-27T06:53:24;37.55;;;16.83;;
23670;SDS011;12012;51.998;7.614;2024-01-27T06:55:49;39.30;;;17.35;;
23670;SDS011;12012;51.998;7.614;2024-01-27T06:58:15;47.53;;;17.88;;
23670;SDS011;12012;51.998;7.614;2024-01-27T07:00:40;45.45;;;18.63;;
23670;SDS011;12012;51.998;7.614;2024-01-27T07:03:06;43.30;;;19.77;;
23670;SDS011;12012;51.998;7.614;2024-01-27T07:05:31;43.13;;;18.70;;
23670;SDS011;12012;51.998;7.614;2024-01-27T07:08:03;37.70;;;18.42;;
23670;SDS011;12012;51.998;7.614;2024-01-27T07:10:31;47.53;;;18.77;;
23670;SDS011;12012;51.998;7.614;2024-01-27T07:12:56;46.63;;;20.38;;
23670;SDS011;12012;51.998;7.614;2024-01-27T07:15:22;42.63;;;18.60;;
23670;SDS011;12012;51.998;7.614;2024-01-27T07:17:48;41.13;;;19.48;;
23670;SDS011;12012;51.998;7.614;2024-01-27T07:20:14;38.85;;;19.92;;
23670;SDS011;12012;51.998;7.614;2024-01-27T07:22:39;52.45;;;21.45;;
23670;SDS011;12012;51.998;7.614;2024-01-27T07:25:05;46.55;;;20.67;;
23670;SDS011;12012;51.998;7.614;2024-01-27T07:27:32;47.20;;;22.13;;
23670;SDS011;12012;51.998;7.614;2024-01-27T07:29:57;47.72;;;20.55;;
23670;SDS011;12012;51.998;7.614;2024-01-27T07:32:23;55.95;;;22.30;;
23670;SDS011;12012;51.998;7.614;2024-01-27T07:34:49;52.80;;;23.30;;
23670;SDS011;12012;51.998;7.614;2024-01-27T07:37:15;49.28;;;23.48;;
23670;SDS011;12012;51.998;7.614;2024-01-27T07:39:41;40.13;;;20.80;;
23670;SDS011;12012;51.998;7.614;2024-01-27T07:42:06;45.50;;;22.02;;
23670;SDS011;12012;51.998;7.614;2024-01-27T07:44:32;51.47;;;24.95;;
23670;SDS011;12012;51.998;7.614;2024-01-27T07:46:57;50.80;;;26.40;;
23670;SDS011;12012;51.998;7.614;2024-01-27T07:49:23;48.45;;;24.98;;
23670;SDS011;12012;51.998;7.614;2024-01-27T07:51:49;48.72;;;22.95;;
23670;SDS011;12012;51.998;7.614;2024-01-27T07:54:14;51.85;;;25.02;;
23670;SDS011;12012;51.998;7.614;2024-01-27T07:56:40;54.65;;;24.20;;
23670;SDS011;12012;51.998;7.614;2024-01-27T07:59:06;56.72;;;23.77;;
23670;SDS011;12012;51.998;7.614;2024-01-27T08:01:38;42.58;;;22.67;;
23670;SDS011;12012;51.998;7.614;2024-01-27T08:04:04;52.35;;;23.55;;
23670;SDS011;12012;51.998;7.614;2024-01-27T08:06:30;49.53;;;21.70;;
23670;SDS011;12012;51.998;7.614;2024-01-27T08:08:55;43.35;;;19.67;;
23670;SDS011;12012;51.998;7.614;2024-01-27T08:11:21;46.00;;;19.80;;
23670;SDS011;12012;51.998;7.614;2024-01-27T08:13:47;41.88;;;19.58;;
23670;SDS011;12012;51.998;7.614;2024-01-27T08:16:13;42.50;;;18.05;;
23670;SDS011;12012;51.998;7.614;2024-01-27T08:18:39;43.28;;;18.30;;
23670;SDS011;12012;51.998;7.614;2024-01-27T08:21:07;37.10;;;17.58;;
23670;SDS011;12012;51.998;7.614;2024-01-27T08:23:33;35.83;;;16.42;;
23670;SDS011;12012;51.998;7.614;2024-01-27T08:25:59;34.42;;;16.50;;
23670;SDS011;12012;51.998;7.614;2024-01-27T08:28:24;36.55;;;16.10;;
23670;SDS011;12012;51.998;7.614;2024-01-27T08:30:50;38.45;;;15.43;;
23670;SDS011;12012;51.998;7.614;2024-01-27T08:33:16;35.65;;;15.05;;
23670;SDS011;12012;51.998;7.614;2024-01-27T08:35:41;31.00;;;14.63;;
23670;SDS011;12012;51.998;7.614;2024-01-27T08:38:07;38.47;;;15.05;;
23670;SDS011;12012;51.998;7.614;2024-01-27T08:40:34;34.88;;;13.98;;
23670;SDS011;12012;51.998;7.614;2024-01-27T08:43:00;33.00;;;13.93;;
23670;SDS011;12012;51.998;7.614;2024-01-27T08:45:26;27.40;;;13.30;;
23670;SDS011;12012;51.998;7.614;2024-01-27T08:47:52;32.20;;;13.40;;
23670;SDS011;12012;51.998;7.614;2024-01-27T08:50:18;32.08;;;14.00;;
23670;SDS011;12012;51.998;7.614;2024-01-27T08:52:43;33.80;;;13.77;;
23670;SDS011;12012;51.998;7.614;2024-01-27T08:55:10;33.15;;;14.38;;
23670;SDS011;12012;51.998;7.614;2024-01-27T08:57:36;36.00;;;14.18;;
23670;SDS011;12012;51.998;7.614;2024-01-27T09:00:02;41.42;;;14.85;;
23670;SDS011;12012;51.998;7.614;2024-01-27T09:02:28;28.15;;;12.95;;
23670;SDS011;12012;51.998;7.614;2024-01-27T09:04:54;34.25;;;14.38;;
23670;SDS011;12012;51.998;7.614;2024-01-27T09:07:20;36.30;;;13.90;;
23670;SDS011;12012;51.998;7.614;2024-01-27T09:09:45;29.10;;;13.60;;
23670;SDS011;12012;51.998;7.614;2024-01-27T09:12:11;43.70;;;14.68;;
23670;SDS011;12012;51.998;7.614;2024-01-27T09:14:36;32.40;;;14.30;;
23670;SDS011;12012;51.998;7.614;2024-01-27T09:17:02;29.85;;;12.98;;
23670;SDS011;12012;51.998;7.614;2024-01-27T09:19:28;31.38;;;13.95;;
23670;SDS011;12012;51.998;7.614;2024-01-27T09:21:53;39.80;;;14.55;;
23670;SDS011;12012;51.998;7.614;2024-01-27T09:24:19;27.05;;;12.65;;
23670;SDS011;12012;51.998;7.614;2024-01-27T09:26:45;33.92;;;14.00;;
23670;SDS011;12012;51.998;7.614;2024-01-27T09:29:10;38.28;;;14.30;;
23670;SDS011;12012;51.998;7.614;2024-01-27T09:31:36;26.77;;;13.40;;
23670;SDS011;12012;51.998;7.614;2024-01-27T09:34:02;37.72;;;14.63;;
23670;SDS011;12012;51.998;7.614;2024-01-27T09:36:27;31.15;;;13.73;;
23670;SDS011;12012;51.998;7.614;2024-01-27T09:38:53;33.20;;;14.48;;
23670;SDS011;12012;51.998;7.614;2024-01-27T09:41:19;29.38;;;13.90;;
23670;SDS011;12012;51.998;7.614;2024-01-27T09:43:46;36.10;;;13.98;;
23670;SDS011;12012;51.998;7.614;2024-01-27T09:46:13;28.05;;;12.82;;
23670;SDS011;12012;51.998;7.614;2024-01-27T09:48:39;31.92;;;13.00;;
23670;SDS011;12012;51.998;7.614;2024-01-27T09:51:06;35.45;;;13.60;;
23670;SDS011;12012;51.998;7.614;2024-01-27T09:53:33;32.85;;;13.23;;
23670;SDS011;12012;51.998;7.614;2024-01-27T09:55:59;36.80;;;13.00;;
23670;SDS011;12012;51.998;7.614;2024-01-27T09:58:26;37.10;;;13.00;;
23670;SDS011;12012;51.998;7.614;2024-01-27T10:00:54;26.20;;;11.80;;
23670;SDS011;12012;51.998;7.614;2024-01-27T10:03:26;23.83;;;10.57;;
23670;SDS011;12012;51.998;7.614;2024-01-27T10:05:53;25.42;;;10.63;;
23670;SDS011;12012;51.998;7.614;2024-01-27T10:08:20;21.48;;;9.95;;
23670;SDS011;12012;51.998;7.614;2024-01-27T10:10:47;26.88;;;10.40;;
23670;SDS011;12012;51.998;7.614;2024-01-27T10:13:16;22.52;;;8.90;;
23670;SDS011;12012;51.998;7.614;2024-01-27T10:15:42;24.15;;;9.32;;
23670;SDS011;12012;51.998;7.614;2024-01-27T10:18:09;21.50;;;8.38;;
23670;SDS011;12012;51.998;7.614;2024-01-27T10:20:38;23.23;;;9.43;;
23670;SDS011;12012;51.998;7.614;2024-01-27T10:23:10;24.35;;;9.43;;
23670;SDS011;12012;51.998;7.614;2024-01-27T10:25:37;23.73;;;8.10;;
23670;SDS011;12012;51.998;7.614;2024-01-27T10:28:04;23.95;;;8.57;;
23670;SDS011;12012;51.998;7.614;2024-01-27T10:30:31;19.80;;;8.48;;
23670;SDS011;12012;51.998;7.614;2024-01-27T10:32:57;23.52;;;9.02;;
23670;SDS011;12012;51.998;7.614;2024-01-27T10:35:22;16.88;;;7.57;;
23670;SDS011;12012;51.998;7.614;2024-01-27T10:37:51;17.35;;;8.27;;
23670;SDS011;12012;51.998;7.614;2024-01-27T10:40:17;20.58;;;8.00;;
23670;SDS011;12012;51.998;7.614;2024-01-27T10:42:43;24.58;;;9.05;;
23670;SDS011;12012;51.998;7.614;2024-01-27T10:45:11;21.75;;;8.60;;
23670;SDS011;12012;51.998;7.614;2024-01-27T10:47:38;25.80;;;8.48;;
23670;SDS011;12012;51.998;7.614;2024-01-27T10:50:06;21.55;;;8.05;;
23670;SDS011;12012;51.998;7.614;2024-01-27T10:52:34;19.33;;;7.35;;
23670;SDS011;12012;51.998;7.614;2024-01-27T10:55:04;21.30;;;7.82;;
23670;SDS011;12012;51.998;7.614;2024-01-27T10:57:35;19.08;;;8.07;;
23670;SDS011;12012;51.998;7.614;2024-01-27T11:00:03;23.38;;;8.02;;
23670;SDS011;12012;51.998;7.614;2024-01-27T11:02:34;21.55;;;7.82;;
23670;SDS011;12012;51.998;7.614;2024-01-27T11:05:00;18.92;;;8.65;;
23670;SDS011;12012;51.998;7.614;2024-01-27T11:07:29;19.00;;;8.27;;
23670;SDS011;12012;51.998;7.614;2024-01-27T11:09:57;17.98;;;7.90;;
23670;SDS011;12012;51.998;7.614;2024-01-27T11:12:23;18.52;;;7.68;;
23670;SDS011;12012;51.998;7.614;2024-01-27T11:14:49;18.33;;;7.00;;
23670;SDS011;12012;51.998;7.614;2024-01-27T11:17:16;16.80;;;7.65;;
23670;SDS011;12012;51.998;7.614;2024-01-27T11:19:44;19.00;;;7.72;;
23670;SDS011;12012;51.998;7.614;2024-01-27T11:22:23;21.20;;;8.02;;
23670;SDS011;12012;51.998;7.614;2024-01-27T11:24:51;15.77;;;8.00;;
23670;SDS011;12012;51.998;7.614;2024-01-27T11:27:17;17.17;;;7.15;;
23670;SDS011;12012;51.998;7.614;2024-01-27T11:29:46;15.18;;;7.22;;
23670;SDS011;12012;51.998;7.614;2024-01-27T11:32:12;20.13;;;7.88;;
23670;SDS011;12012;51.998;7.614;2024-01-27T11:34:41;19.73;;;7.57;;
23670;SDS011;12012;51.998;7.614;2024-01-27T11:37:14;16.13;;;7.03;;
23670;SDS011;12012;51.998;7.614;2024-01-27T11:39:41;17.35;;;7.80;;
23670;SDS011;12012;51.998;7.614;2024-01-27T11:42:08;19.35;;;7.55;;
23670;SDS011;12012;51.998;7.614;2024-01-27T11:44:41;17.73;;;7.18;;
23670;SDS011;12012;51.998;7.614;2024-01-27T11:47:17;18.60;;;7.20;;
23670;SDS011;12012;51.998;7.614;2024-01-27T11:49:48;18.98;;;7.68;;
23670;SDS011;12012;51.998;7.614;2024-01-27T11:52:19;17.52;;;7.03;;
23670;SDS011;12012;51.998;7.614;2024-01-27T11:54:45;21.65;;;7.82;;
23670;SDS011;12012;51.998;7.614;2024-01-27T11:57:10;15.77;;;6.93;;
23670;SDS011;12012;51.998;7.614;2024-01-27T11:59:36;20.73;;;7.43;;
23670;SDS011;12012;51.998;7.614;2024-01-27T12:02:02;17.83;;;6.88;;
23670;SDS011;12012;51.998;7.614;2024-01-27T12:04:28;14.88;;;6.45;;
23670;SDS011;12012;51.998;7.614;2024-01-27T12:06:53;15.52;;;6.40;;
23670;SDS011;12012;51.998;7.614;2024-01-27T12:09:19;18.55;;;6.10;;
23670;SDS011;12012;51.998;7.614;2024-01-27T12:11:45;15.40;;;5.93;;
23670;SDS011;12012;51.998;7.614;2024-01-27T12:14:11;14.00;;;6.32;;
23670;SDS011;12012;51.998;7.614;2024-01-27T12:16:37;15.95;;;6.05;;
23670;SDS011;12012;51.998;7.614;2024-01-27T12:19:03;15.70;;;6.13;;
23670;SDS011;12012;51.998;7.614;2024-01-27T12:21:29;15.38;;;6.45;;
23670;SDS011;12012;51.998;7.614;2024-01-27T12:23:57;15.73;;;7.25;;
23670;SDS011;12012;51.998;7.614;2024-01-27T12:26:28;16.02;;;6.75;;
23670;SDS011;12012;51.998;7.614;2024-01-27T12:28:55;17.13;;;6.57;;
23670;SDS011;12012;51.998;7.614;2024-01-27T12:31:22;15.93;;;5.57;;
23670;SDS011;12012;51.998;7.614;2024-01-27T12:33:49;21.00;;;6.35;;
23670;SDS011;12012;51.998;7.614;2024-01-27T12:36:19;17.60;;;6.13;;
23670;SDS011;12012;51.998;7.614;2024-01-27T12:41:20;15.82;;;6.15;;
23670;SDS011;12012;51.998;7.614;2024-01-27T12:43:45;15.07;;;5.40;;
23670;SDS011;12012;51.998;7.614;2024-01-27T12:46:11;15.15;;;6.18;;
23670;SDS011;12012;51.998;7.614;2024-01-27T12:48:37;17.88;;;6.28;;
23670;SDS011;12012;51.998;7.614;2024-01-27T12:51:04;15.27;;;5.07;;
23670;SDS011;12012;51.998;7.614;2024-01-27T12:53:30;16.60;;;5.85;;
23670;SDS011;12012;51.998;7.614;2024-01-27T12:55:55;13.00;;;5.50;;
23670;SDS011;12012;51.998;7.614;2024-01-27T12:58:21;14.77;;;5.97;;
23670;SDS011;12012;51.998;7.614;2024-01-27T13:00:47;16.08;;;6.00;;
23670;SDS011;12012;51.998;7.614;2024-01-27T13:03:12;17.17;;;7.22;;
23670;SDS011;12012;51.998;7.614;2024-01-27T13:05:38;16.25;;;5.95;;
23670;SDS011;12012;51.998;7.614;2024-01-27T13:08:04;18.85;;;5.63;;
23670;SDS011;12012;51.998;7.614;2024-01-27T13:10:30;19.83;;;6.57;;
23670;SDS011;12012;51.998;7.614;2024-01-27T13:12:56;15.43;;;5.30;;
23670;SDS011;12012;51.998;7.614;2024-01-27T13:15:23;14.40;;;5.05;;
23670;SDS011;12012;51.998;7.614;2024-01-27T13:17:50;17.88;;;6.10;;
23670;SDS011;12012;51.998;7.614;2024-01-27T13:20:15;14.85;;;5.13;;
23670;SDS011;12012;51.998;7.614;2024-01-27T13:22:42;13.52;;;4.72;;
23670;SDS011;12012;51.998;7.614;2024-01-27T13:25:08;16.48;;;5.47;;
23670;SDS011;12012;51.998;7.614;2024-01-27T13:27:34;14.88;;;5.70;;
23670;SDS011;12012;51.998;7.614;2024-01-27T13:29:59;15.15;;;5.43;;
23670;SDS011;12012;51.998;7.614;2024-01-27T13:32:25;18.17;;;5.75;;
23670;SDS011;12012;51.998;7.614;2024-01-27T13:34:51;17.30;;;5.30;;
23670;SDS011;12012;51.998;7.614;2024-01-27T13:37:17;16.20;;;6.03;;
23670;SDS011;12012;51.998;7.614;2024-01-27T13:39:43;15.18;;;5.75;;
23670;SDS011;12012;51.998;7.614;2024-01-27T13:42:10;18.73;;;5.57;;
23670;SDS011;12012;51.998;7.614;2024-01-27T13:44:36;15.95;;;5.32;;
23670;SDS011;12012;51.998;7.614;2024-01-27T13:47:02;15.70;;;5.35;;
23670;SDS011;12012;51.998;7.614;2024-01-27T13:49:30;14.35;;;5.65;;
23670;SDS011;12012;51.998;7.614;2024-01-27T13:51:56;18.92;;;6.00;;
23670;SDS011;12012;51.998;7.614;2024-01-27T13:56:51;19.48;;;5.88;;
23670;SDS011;12012;51.998;7.614;2024-01-27T13:59:17;20.95;;;5.60;;
23670;SDS011;12012;51.998;7.614;2024-01-27T14:01:44;17.77;;;5.57;;
23670;SDS011;12012;51.998;7.614;2024-01-27T14:04:09;20.00;;;5.38;;
23670;SDS011;12012;51.998;7.614;2024-01-27T14:06:35;19.75;;;5.60;;
23670;SDS011;12012;51.998;7.614;2024-01-27T14:09:01;19.77;;;6.65;;
23670;SDS011;12012;51.998;7.614;2024-01-27T14:11:29;18.90;;;5.38;;
23670;SDS011;12012;51.998;7.614;2024-01-27T14:13:54;16.75;;;5.60;;
23670;SDS011;12012;51.998;7.614;2024-01-27T14:16:20;18.75;;;5.60;;
23670;SDS011;12012;51.998;7.614;2024-01-27T14:18:46;17.90;;;5.10;;
23670;SDS011;12012;51.998;7.614;2024-01-27T14:21:11;16.15;;;4.85;;
23670;SDS011;12012;51.998;7.614;2024-01-27T14:23:37;19.88;;;5.60;;
23670;SDS011;12012;51.998;7.614;2024-01-27T14:26:05;15.40;;;5.00;;
23670;SDS011;12012;51.998;7.614;2024-01-27T14:28:33;17.50;;;4.55;;
23670;SDS011;12012;51.998;7.614;2024-01-27T14:30:59;16.33;;;4.95;;